sensor_id;sensor_type;location;lat;lon;timestamp;pressure;altitude;pressure_sealevel;temperature;humidity
12054;BME280;5638;50.860;4.698;2022-10-12T00:01:13;102038.28;;;8.84;nan
12054;BME280;5638;50.860;4.698;2022-10-12T00:03:39;102041.69;;;8.78;nan
12054;BME280;5638;50.860;4.698;2022-10-12T00:06:20;102052.06;;;8.84;nan
12054;BME280;5638;50.860;4.698;2022-10-12T00:08:51;102054.72;;;8.90;nan
12054;BME280;5638;50.860;4.698;2022-10-12T00:11:22;102055.53;;;8.86;nan
12054;BME280;5638;50.860;4.698;2022-10-12T00:13:48;102051.03;;;8.71;nan
12054;BME280;5638;50.860;4.698;2022-10-12T00:16:17;102056.97;;;8.64;nan
12054;BME280;5638;50.860;4.698;2022-10-12T00:18:44;102055.28;;;8.66;nan
12054;BME280;5638;50.860;4.698;2022-10-12T00:21:14;102044.84;;;8.57;nan
12054;BME280;5638;50.860;4.698;2022-10-12T00:23:42;102046.50;;;8.54;nan
12054;BME280;5638;50.860;4.698;2022-10-12T00:26:21;102041.34;;;8.54;nan
12054;BME280;5638;50.860;4.698;2022-10-12T00:28:47;102034.31;;;8.43;nan
12054;BME280;5638;50.860;4.698;2022-10-12T00:31:17;102042.06;;;8.43;nan
12054;BME280;5638;50.860;4.698;2022-10-12T00:33:44;102044.69;;;8.46;nan
12054;BME280;5638;50.860;4.698;2022-10-12T00:36:27;102035.34;;;8.56;nan
12054;BME280;5638;50.860;4.698;2022-10-12T00:38:55;102030.19;;;8.55;nan
12054;BME280;5638;50.860;4.698;2022-10-12T00:41:32;102041.38;;;8.57;nan
12054;BME280;5638;50.860;4.698;2022-10-12T00:43:58;102020.66;;;8.49;nan
12054;BME280;5638;50.860;4.698;2022-10-12T00:46:39;102027.44;;;8.41;nan
12054;BME280;5638;50.860;4.698;2022-10-12T00:49:23;102047.34;;;8.51;nan
12054;BME280;5638;50.860;4.698;2022-10-12T00:51:59;102044.81;;;8.56;nan
12054;BME280;5638;50.860;4.698;2022-10-12T00:54:39;102045.63;;;8.52;nan
12054;BME280;5638;50.860;4.698;2022-10-12T00:57:10;102048.88;;;8.40;nan
12054;BME280;5638;50.860;4.698;2022-10-12T00:59:50;102026.38;;;8.31;nan
12054;BME280;5638;50.860;4.698;2022-10-12T01:02:18;102031.47;;;8.27;nan
12054;BME280;5638;50.860;4.698;2022-10-12T01:04:45;102029.75;;;8.27;nan
12054;BME280;5638;50.860;4.698;2022-10-12T01:07:11;102020.38;;;8.29;nan
12054;BME280;5638;50.860;4.698;2022-10-12T01:09:38;102028.25;;;8.38;nan
12054;BME280;5638;50.860;4.698;2022-10-12T01:12:06;102037.84;;;8.48;nan
12054;BME280;5638;50.860;4.698;2022-10-12T01:14:34;102023.09;;;8.38;nan
12054;BME280;5638;50.860;4.698;2022-10-12T01:17:29;102021.03;;;8.16;nan
12054;BME280;5638;50.860;4.698;2022-10-12T01:29:08;102035.06;;;8.36;nan
12054;BME280;5638;50.860;4.698;2022-10-12T01:31:57;102025.28;;;8.14;nan
12054;BME280;5638;50.860;4.698;2022-10-12T01:37:41;102015.72;;;8.05;nan
12054;BME280;5638;50.860;4.698;2022-10-12T01:40:25;102020.97;;;8.13;nan
12054;BME280;5638;50.860;4.698;2022-10-12T01:42:53;102008.72;;;7.98;nan
12054;BME280;5638;50.860;4.698;2022-10-12T01:45:20;102009.50;;;7.92;nan
12054;BME280;5638;50.860;4.698;2022-10-12T01:47:51;102022.19;;;7.79;nan
12054;BME280;5638;50.860;4.698;2022-10-12T01:50:21;102014.47;;;7.79;nan
12054;BME280;5638;50.860;4.698;2022-10-12T02:04:13;102008.19;;;7.63;nan
12054;BME280;5638;50.860;4.698;2022-10-12T02:07:03;102012.47;;;7.61;nan
12054;BME280;5638;50.860;4.698;2022-10-12T02:09:33;102003.81;;;7.59;nan
12054;BME280;5638;50.860;4.698;2022-10-12T02:12:14;102008.25;;;7.67;nan
12054;BME280;5638;50.860;4.698;2022-10-12T02:14:56;102009.97;;;7.67;nan
12054;BME280;5638;50.860;4.698;2022-10-12T02:17:24;102007.25;;;7.58;nan
12054;BME280;5638;50.860;4.698;2022-10-12T02:19:56;101993.31;;;7.46;nan
12054;BME280;5638;50.860;4.698;2022-10-12T02:22:32;102003.69;;;7.49;nan
12054;BME280;5638;50.860;4.698;2022-10-12T02:25:07;101988.19;;;7.48;nan
12054;BME280;5638;50.860;4.698;2022-10-12T02:27:41;101986.47;;;7.47;nan
12054;BME280;5638;50.860;4.698;2022-10-12T02:30:08;101999.25;;;7.41;nan
12054;BME280;5638;50.860;4.698;2022-10-12T02:33:14;102001.84;;;7.42;nan
12054;BME280;5638;50.860;4.698;2022-10-12T02:35:55;101995.84;;;7.43;nan
12054;BME280;5638;50.860;4.698;2022-10-12T02:38:37;101982.06;;;7.40;nan
12054;BME280;5638;50.860;4.698;2022-10-12T02:41:28;101973.28;;;7.29;nan
12054;BME280;5638;50.860;4.698;2022-10-12T02:44:03;101982.59;;;7.22;nan
12054;BME280;5638;50.860;4.698;2022-10-12T02:46:33;101971.50;;;7.26;nan
12054;BME280;5638;50.860;4.698;2022-10-12T02:49:02;101966.41;;;7.28;nan
12054;BME280;5638;50.860;4.698;2022-10-12T02:51:31;101975.09;;;7.34;nan
12054;BME280;5638;50.860;4.698;2022-10-12T02:53:58;101969.06;;;7.32;nan
12054;BME280;5638;50.860;4.698;2022-10-12T02:56:24;101971.78;;;7.41;nan
12054;BME280;5638;50.860;4.698;2022-10-12T02:58:50;101976.91;;;7.40;nan
12054;BME280;5638;50.860;4.698;2022-10-12T03:01:16;101964.66;;;7.25;nan
12054;BME280;5638;50.860;4.698;2022-10-12T03:03:43;101961.06;;;7.17;nan
12054;BME280;5638;50.860;4.698;2022-10-12T03:06:09;101972.09;;;7.10;nan
12054;BME280;5638;50.860;4.698;2022-10-12T03:08:35;101958.34;;;7.09;nan
12054;BME280;5638;50.860;4.698;2022-10-12T03:11:06;101954.03;;;7.07;nan
12054;BME280;5638;50.860;4.698;2022-10-12T03:13:33;101948.09;;;7.11;nan
12054;BME280;5638;50.860;4.698;2022-10-12T03:16:07;101949.84;;;7.12;nan
12054;BME280;5638;50.860;4.698;2022-10-12T03:18:34;101953.44;;;7.23;nan
12054;BME280;5638;50.860;4.698;2022-10-12T03:21:00;101948.34;;;7.24;nan
12054;BME280;5638;50.860;4.698;2022-10-12T03:23:26;101955.28;;;7.30;nan
12054;BME280;5638;50.860;4.698;2022-10-12T03:25:52;101950.13;;;7.30;nan
12054;BME280;5638;50.860;4.698;2022-10-12T03:28:18;101955.34;;;7.32;nan
12054;BME280;5638;50.860;4.698;2022-10-12T03:30:44;101951.84;;;7.28;nan
12054;BME280;5638;50.860;4.698;2022-10-12T03:33:11;101954.47;;;7.33;nan
12054;BME280;5638;50.860;4.698;2022-10-12T03:35:37;101957.91;;;7.33;nan
12054;BME280;5638;50.860;4.698;2022-10-12T03:38:03;101963.06;;;7.33;nan
12054;BME280;5638;50.860;4.698;2022-10-12T03:40:28;101969.06;;;7.32;nan
12054;BME280;5638;50.860;4.698;2022-10-12T03:42:54;101962.75;;;7.15;nan
12054;BME280;5638;50.860;4.698;2022-10-12T03:45:20;101965.22;;;7.09;nan
12054;BME280;5638;50.860;4.698;2022-10-12T03:47:46;101953.06;;;7.00;nan
12054;BME280;5638;50.860;4.698;2022-10-12T03:50:12;101933.88;;;6.84;nan
12054;BME280;5638;50.860;4.698;2022-10-12T03:52:39;101967.69;;;7.03;nan
12054;BME280;5638;50.860;4.698;2022-10-12T03:55:05;101961.56;;;6.97;nan
12054;BME280;5638;50.860;4.698;2022-10-12T03:57:31;101957.41;;;7.03;nan
12054;BME280;5638;50.860;4.698;2022-10-12T03:59:57;101970.34;;;7.07;nan
12054;BME280;5638;50.860;4.698;2022-10-12T04:02:23;101953.53;;;6.81;nan
12054;BME280;5638;50.860;4.698;2022-10-12T04:04:49;101929.03;;;6.54;nan
12054;BME280;5638;50.860;4.698;2022-10-12T04:07:14;101954.19;;;6.69;nan
12054;BME280;5638;50.860;4.698;2022-10-12T04:09:40;101949.69;;;6.57;nan
12054;BME280;5638;50.860;4.698;2022-10-12T04:12:06;101956.03;;;6.76;nan
12054;BME280;5638;50.860;4.698;2022-10-12T04:14:32;101963.97;;;6.87;nan
12054;BME280;5638;50.860;4.698;2022-10-12T04:16:58;101957.22;;;6.93;nan
12054;BME280;5638;50.860;4.698;2022-10-12T04:19:23;101960.91;;;7.08;nan
12054;BME280;5638;50.860;4.698;2022-10-12T04:21:49;101948.69;;;6.97;nan
12054;BME280;5638;50.860;4.698;2022-10-12T04:24:15;101958.19;;;6.98;nan
12054;BME280;5638;50.860;4.698;2022-10-12T04:26:41;101950.41;;;6.97;nan
12054;BME280;5638;50.860;4.698;2022-10-12T04:29:06;101964.13;;;6.96;nan
12054;BME280;5638;50.860;4.698;2022-10-12T04:31:32;101959.53;;;6.81;nan
12054;BME280;5638;50.860;4.698;2022-10-12T04:33:58;101945.63;;;6.70;nan
12054;BME280;5638;50.860;4.698;2022-10-12T04:36:25;101962.94;;;6.79;nan
12054;BME280;5638;50.860;4.698;2022-10-12T04:38:52;101964.50;;;6.70;nan
12054;BME280;5638;50.860;4.698;2022-10-12T04:41:18;101952.56;;;6.74;nan
12054;BME280;5638;50.860;4.698;2022-10-12T04:43:44;101968.19;;;6.83;nan
12054;BME280;5638;50.860;4.698;2022-10-12T04:46:10;101964.56;;;6.73;nan
12054;BME280;5638;50.860;4.698;2022-10-12T04:48:37;101969.63;;;6.69;nan
12054;BME280;5638;50.860;4.698;2022-10-12T04:51:04;101957.53;;;6.65;nan
12054;BME280;5638;50.860;4.698;2022-10-12T04:53:30;101965.97;;;6.58;nan
12054;BME280;5638;50.860;4.698;2022-10-12T04:55:56;101958.97;;;6.51;nan
12054;BME280;5638;50.860;4.698;2022-10-12T04:58:26;101951.75;;;6.34;nan
12054;BME280;5638;50.860;4.698;2022-10-12T05:00:51;101960.59;;;6.47;nan
12054;BME280;5638;50.860;4.698;2022-10-12T05:03:17;101951.91;;;6.40;nan
12054;BME280;5638;50.860;4.698;2022-10-12T05:05:44;101958.97;;;6.51;nan
12054;BME280;5638;50.860;4.698;2022-10-12T05:08:10;101962.47;;;6.54;nan
12054;BME280;5638;50.860;4.698;2022-10-12T05:10:36;101953.81;;;6.49;nan
12054;BME280;5638;50.860;4.698;2022-10-12T05:13:02;101948.59;;;6.47;nan
12054;BME280;5638;50.860;4.698;2022-10-12T05:15:28;101955.44;;;6.45;nan
12054;BME280;5638;50.860;4.698;2022-10-12T05:17:54;101937.44;;;6.45;nan
12054;BME280;5638;50.860;4.698;2022-10-12T05:20:19;101948.84;;;6.60;nan
12054;BME280;5638;50.860;4.698;2022-10-12T05:22:45;101945.41;;;6.59;nan
12054;BME280;5638;50.860;4.698;2022-10-12T05:25:13;101940.22;;;6.56;nan
12054;BME280;5638;50.860;4.698;2022-10-12T05:27:39;101930.78;;;6.55;nan
12054;BME280;5638;50.860;4.698;2022-10-12T05:30:07;101931.59;;;6.53;nan
12054;BME280;5638;50.860;4.698;2022-10-12T05:32:33;101932.47;;;6.55;nan
12054;BME280;5638;50.860;4.698;2022-10-12T05:34:59;101935.13;;;6.58;nan
12054;BME280;5638;50.860;4.698;2022-10-12T05:37:25;101947.16;;;6.60;nan
12054;BME280;5638;50.860;4.698;2022-10-12T05:39:51;101946.44;;;6.67;nan
12054;BME280;5638;50.860;4.698;2022-10-12T05:42:17;101944.69;;;6.65;nan
12054;BME280;5638;50.860;4.698;2022-10-12T05:44:43;101936.09;;;6.64;nan
12054;BME280;5638;50.860;4.698;2022-10-12T05:47:09;101951.56;;;6.66;nan
12054;BME280;5638;50.860;4.698;2022-10-12T05:49:34;101942.75;;;6.55;nan
12054;BME280;5638;50.860;4.698;2022-10-12T05:52:00;101940.00;;;6.45;nan
12054;BME280;5638;50.860;4.698;2022-10-12T05:54:26;101943.53;;;6.51;nan
12054;BME280;5638;50.860;4.698;2022-10-12T05:56:52;101918.50;;;6.40;nan
12054;BME280;5638;50.860;4.698;2022-10-12T05:59:18;101940.22;;;6.56;nan
12054;BME280;5638;50.860;4.698;2022-10-12T06:01:44;101933.19;;;6.47;nan
12054;BME280;5638;50.860;4.698;2022-10-12T06:04:10;101936.66;;;6.48;nan
12054;BME280;5638;50.860;4.698;2022-10-12T06:06:38;101929.72;;;6.45;nan
12054;BME280;5638;50.860;4.698;2022-10-12T06:09:04;101930.69;;;6.51;nan
12054;BME280;5638;50.860;4.698;2022-10-12T06:11:30;101933.22;;;6.49;nan
12054;BME280;5638;50.860;4.698;2022-10-12T06:13:55;101940.09;;;6.48;nan
12054;BME280;5638;50.860;4.698;2022-10-12T06:16:21;101928.94;;;6.48;nan
12054;BME280;5638;50.860;4.698;2022-10-12T06:18:48;101940.31;;;6.61;nan
12054;BME280;5638;50.860;4.698;2022-10-12T06:21:14;101937.78;;;6.62;nan
12054;BME280;5638;50.860;4.698;2022-10-12T06:23:40;101931.06;;;6.69;nan
12054;BME280;5638;50.860;4.698;2022-10-12T06:26:06;101930.16;;;6.67;nan
12054;BME280;5638;50.860;4.698;2022-10-12T06:28:32;101944.00;;;6.73;nan
12054;BME280;5638;50.860;4.698;2022-10-12T06:30:59;101942.28;;;6.74;nan
12054;BME280;5638;50.860;4.698;2022-10-12T06:33:26;101940.59;;;6.76;nan
12054;BME280;5638;50.860;4.698;2022-10-12T06:35:54;101935.97;;;6.57;nan
12054;BME280;5638;50.860;4.698;2022-10-12T06:38:20;101945.25;;;6.52;nan
12054;BME280;5638;50.860;4.698;2022-10-12T06:40:46;101948.75;;;6.54;nan
12054;BME280;5638;50.860;4.698;2022-10-12T06:43:12;101951.25;;;6.51;nan
12054;BME280;5638;50.860;4.698;2022-10-12T06:45:38;101949.69;;;6.57;nan
12054;BME280;5638;50.860;4.698;2022-10-12T06:48:06;101944.53;;;6.57;nan
12054;BME280;5638;50.860;4.698;2022-10-12T06:50:32;101935.19;;;6.62;nan
12054;BME280;5638;50.860;4.698;2022-10-12T06:52:58;101938.81;;;6.72;nan
12054;BME280;5638;50.860;4.698;2022-10-12T06:55:24;101955.31;;;6.83;nan
12054;BME280;5638;50.860;4.698;2022-10-12T06:57:50;101945.75;;;6.76;nan
12054;BME280;5638;50.860;4.698;2022-10-12T07:00:16;101957.88;;;6.82;nan
12054;BME280;5638;50.860;4.698;2022-10-12T07:02:42;101955.41;;;6.89;nan
12054;BME280;5638;50.860;4.698;2022-10-12T07:05:08;101952.91;;;6.92;nan
12054;BME280;5638;50.860;4.698;2022-10-12T07:07:35;101950.53;;;7.03;nan
12054;BME280;5638;50.860;4.698;2022-10-12T07:10:03;101947.06;;;7.01;nan
12054;BME280;5638;50.860;4.698;2022-10-12T07:12:29;101951.41;;;7.05;nan
12054;BME280;5638;50.860;4.698;2022-10-12T07:14:55;101937.63;;;7.02;nan
12054;BME280;5638;50.860;4.698;2022-10-12T07:17:22;101933.47;;;7.07;nan
12054;BME280;5638;50.860;4.698;2022-10-12T07:19:48;101937.91;;;7.17;nan
12054;BME280;5638;50.860;4.698;2022-10-12T07:22:14;101945.78;;;7.26;nan
12054;BME280;5638;50.860;4.698;2022-10-12T07:24:40;101959.69;;;7.36;nan
12054;BME280;5638;50.860;4.698;2022-10-12T07:27:08;101958.91;;;7.41;nan
12054;BME280;5638;50.860;4.698;2022-10-12T07:29:36;101942.59;;;7.41;nan
12054;BME280;5638;50.860;4.698;2022-10-12T07:32:04;101947.13;;;7.56;nan
12054;BME280;5638;50.860;4.698;2022-10-12T07:34:30;101950.69;;;7.64;nan
12054;BME280;5638;50.860;4.698;2022-10-12T07:36:57;101947.34;;;7.71;nan
12054;BME280;5638;50.860;4.698;2022-10-12T07:39:23;101950.97;;;7.82;nan
12054;BME280;5638;50.860;4.698;2022-10-12T07:41:50;101953.72;;;7.96;nan
12054;BME280;5638;50.860;4.698;2022-10-12T07:44:18;101945.25;;;8.03;nan
12054;BME280;5638;50.860;4.698;2022-10-12T07:46:45;101950.53;;;8.14;nan
12054;BME280;5638;50.860;4.698;2022-10-12T07:49:12;101954.19;;;8.30;nan
12054;BME280;5638;50.860;4.698;2022-10-12T07:51:39;101951.00;;;8.46;nan
12054;BME280;5638;50.860;4.698;2022-10-12T07:54:06;101953.75;;;8.61;nan
12054;BME280;5638;50.860;4.698;2022-10-12T07:56:32;101945.25;;;8.70;nan
12054;BME280;5638;50.860;4.698;2022-10-12T07:58:58;101950.69;;;8.97;nan
12054;BME280;5638;50.860;4.698;2022-10-12T08:01:27;101957.72;;;9.14;nan
12054;BME280;5638;50.860;4.698;2022-10-12T08:03:54;101955.25;;;9.26;nan
12054;BME280;5638;50.860;4.698;2022-10-12T08:06:24;101958.81;;;9.39;nan
12054;BME280;5638;50.860;4.698;2022-10-12T08:08:51;101964.97;;;9.55;nan
12054;BME280;5638;50.860;4.698;2022-10-12T08:11:19;101952.16;;;9.67;nan
12054;BME280;5638;50.860;4.698;2022-10-12T08:13:46;101953.13;;;9.84;nan
12054;BME280;5638;50.860;4.698;2022-10-12T08:16:17;101968.84;;;10.24;nan
12054;BME280;5638;50.860;4.698;2022-10-12T08:18:43;101971.69;;;10.76;nan
12054;BME280;5638;50.860;4.698;2022-10-12T08:21:11;101957.94;;;10.95;nan
12054;BME280;5638;50.860;4.698;2022-10-12T08:23:37;101980.34;;;10.87;nan
12054;BME280;5638;50.860;4.698;2022-10-12T08:26:05;101981.22;;;10.98;nan
12054;BME280;5638;50.860;4.698;2022-10-12T08:28:31;101976.06;;;11.20;nan
12054;BME280;5638;50.860;4.698;2022-10-12T08:30:57;101964.88;;;11.30;nan
12054;BME280;5638;50.860;4.698;2022-10-12T08:33:23;101968.34;;;11.34;nan
12054;BME280;5638;50.860;4.698;2022-10-12T08:35:49;101973.50;;;11.40;nan
12054;BME280;5638;50.860;4.698;2022-10-12T08:38:15;101969.19;;;11.57;nan
12054;BME280;5638;50.860;4.698;2022-10-12T08:41:13;101970.00;;;12.10;nan
12054;BME280;5638;50.860;4.698;2022-10-12T08:46:31;101967.38;;;12.16;nan
12054;BME280;5638;50.860;4.698;2022-10-12T08:49:05;101971.69;;;12.21;nan
12054;BME280;5638;50.860;4.698;2022-10-12T08:51:48;101976.00;;;12.27;nan
12054;BME280;5638;50.860;4.698;2022-10-12T08:54:19;101969.00;;;12.51;nan
12054;BME280;5638;50.860;4.698;2022-10-12T08:56:47;101966.34;;;12.63;nan
12054;BME280;5638;50.860;4.698;2022-10-12T08:59:16;101973.19;;;12.78;nan
12054;BME280;5638;50.860;4.698;2022-10-12T09:05:00;101973.03;;;13.05;nan
12054;BME280;5638;50.860;4.698;2022-10-12T09:07:41;101974.78;;;12.99;nan
12054;BME280;5638;50.860;4.698;2022-10-12T09:16:16;101932.81;;;13.52;nan
12054;BME280;5638;50.860;4.698;2022-10-12T09:18:52;101955.38;;;13.52;nan
12054;BME280;5638;50.860;4.698;2022-10-12T09:21:21;101940.78;;;13.35;nan
12054;BME280;5638;50.860;4.698;2022-10-12T09:23:49;101945.91;;;13.46;nan
12054;BME280;5638;50.860;4.698;2022-10-12T09:26:29;101940.69;;;13.46;nan
12054;BME280;5638;50.860;4.698;2022-10-12T09:28:57;101937.22;;;13.45;nan
12054;BME280;5638;50.860;4.698;2022-10-12T09:34:28;101962.31;;;14.34;nan
12054;BME280;5638;50.860;4.698;2022-10-12T09:36:54;101943.91;;;14.50;nan
12054;BME280;5638;50.860;4.698;2022-10-12T09:39:34;101946.53;;;15.10;nan
12054;BME280;5638;50.860;4.698;2022-10-12T09:42:02;101945.09;;;15.44;nan
12054;BME280;5638;50.860;4.698;2022-10-12T09:44:34;101959.41;;;15.72;nan
12054;BME280;5638;50.860;4.698;2022-10-12T09:47:04;101955.31;;;16.05;nan
12054;BME280;5638;50.860;4.698;2022-10-12T09:49:41;101956.47;;;15.90;nan
12054;BME280;5638;50.860;4.698;2022-10-12T09:52:10;101948.06;;;15.74;nan
12054;BME280;5638;50.860;4.698;2022-10-12T09:54:52;101937.59;;;16.22;nan
12054;BME280;5638;50.860;4.698;2022-10-12T09:57:40;101939.16;;;16.73;nan
12054;BME280;5638;50.860;4.698;2022-10-12T10:02:50;101953.28;;;17.37;nan
12054;BME280;5638;50.860;4.698;2022-10-12T10:05:30;101943.78;;;17.67;nan
12054;BME280;5638;50.860;4.698;2022-10-12T10:08:20;101940.75;;;17.84;nan
12054;BME280;5638;50.860;4.698;2022-10-12T10:10:52;101922.50;;;18.12;nan
12054;BME280;5638;50.860;4.698;2022-10-12T10:13:23;101914.09;;;18.60;nan
12054;BME280;5638;50.860;4.698;2022-10-12T10:16:05;101915.38;;;18.47;nan
12054;BME280;5638;50.860;4.698;2022-10-12T10:18:55;101902.09;;;18.53;nan
12054;BME280;5638;50.860;4.698;2022-10-12T10:21:35;101914.56;;;18.15;nan
12054;BME280;5638;50.860;4.698;2022-10-12T10:27:04;101905.13;;;17.78;nan
12054;BME280;5638;50.860;4.698;2022-10-12T10:29:41;101893.25;;;17.65;nan
12054;BME280;5638;50.860;4.698;2022-10-12T10:32:21;101889.06;;;17.58;nan
12054;BME280;5638;50.860;4.698;2022-10-12T10:37:45;101878.34;;;17.36;nan
12054;BME280;5638;50.860;4.698;2022-10-12T10:40:26;101875.19;;;17.23;nan
12054;BME280;5638;50.860;4.698;2022-10-12T10:42:56;101885.41;;;17.32;nan
12054;BME280;5638;50.860;4.698;2022-10-12T10:45:47;101890.19;;;17.49;nan
12054;BME280;5638;50.860;4.698;2022-10-12T10:48:19;101877.81;;;17.54;nan
12054;BME280;5638;50.860;4.698;2022-10-12T10:51:02;101883.69;;;17.31;nan
12054;BME280;5638;50.860;4.698;2022-10-12T10:53:46;101881.88;;;17.33;nan
12054;BME280;5638;50.860;4.698;2022-10-12T10:56:30;101873.25;;;17.30;nan
12054;BME280;5638;50.860;4.698;2022-10-12T10:59:04;101866.63;;;17.49;nan
12054;BME280;5638;50.860;4.698;2022-10-12T11:01:55;101867.16;;;17.62;nan
12054;BME280;5638;50.860;4.698;2022-10-12T11:04:32;101861.91;;;18.24;nan
12054;BME280;5638;50.860;4.698;2022-10-12T11:07:11;101858.59;;;18.75;nan
12054;BME280;5638;50.860;4.698;2022-10-12T11:09:45;101858.53;;;18.77;nan
12054;BME280;5638;50.860;4.698;2022-10-12T11:12:25;101845.16;;;18.86;nan
12054;BME280;5638;50.860;4.698;2022-10-12T11:15:43;101856.09;;;18.97;nan
12054;BME280;5638;50.860;4.698;2022-10-12T11:18:24;101867.22;;;18.79;nan
12054;BME280;5638;50.860;4.698;2022-10-12T11:21:30;101851.16;;;18.89;nan
12054;BME280;5638;50.860;4.698;2022-10-12T11:24:20;101857.97;;;19.20;nan
12054;BME280;5638;50.860;4.698;2022-10-12T11:27:41;101861.28;;;19.25;nan
12054;BME280;5638;50.860;4.698;2022-10-12T11:29:42;101865.19;;;19.38;nan
12054;BME280;5638;50.860;4.698;2022-10-12T11:32:36;101848.75;;;19.58;nan
12054;BME280;5638;50.860;4.698;2022-10-12T11:35:06;101855.19;;;19.75;nan
12054;BME280;5638;50.860;4.698;2022-10-12T11:37:46;101838.31;;;19.57;nan
12054;BME280;5638;50.860;4.698;2022-10-12T11:40:47;101832.91;;;18.85;nan
12054;BME280;5638;50.860;4.698;2022-10-12T11:43:29;101835.41;;;18.61;nan
12054;BME280;5638;50.860;4.698;2022-10-12T11:46:01;101824.38;;;18.24;nan
12054;BME280;5638;50.860;4.698;2022-10-12T11:48:40;101836.81;;;17.87;nan
12054;BME280;5638;50.860;4.698;2022-10-12T11:51:10;101842.38;;;17.42;nan
12054;BME280;5638;50.860;4.698;2022-10-12T11:53:43;101841.00;;;17.29;nan
12054;BME280;5638;50.860;4.698;2022-10-12T11:56:40;101835.50;;;17.40;nan
12054;BME280;5638;50.860;4.698;2022-10-12T11:59:20;101836.41;;;17.37;nan
12054;BME280;5638;50.860;4.698;2022-10-12T12:02:21;101834.53;;;17.42;nan
12054;BME280;5638;50.860;4.698;2022-10-12T12:04:51;101826.34;;;17.24;nan
12054;BME280;5638;50.860;4.698;2022-10-12T12:23:39;101824.19;;;19.11;nan
12054;BME280;5638;50.860;4.698;2022-10-12T12:26:15;101822.34;;;19.38;nan
12054;BME280;5638;50.860;4.698;2022-10-12T12:29:07;101808.94;;;19.71;nan
12054;BME280;5638;50.860;4.698;2022-10-12T12:31:34;101806.94;;;19.04;nan
12054;BME280;5638;50.860;4.698;2022-10-12T12:34:09;101798.50;;;18.67;nan
12054;BME280;5638;50.860;4.698;2022-10-12T12:36:40;101806.22;;;18.46;nan
12054;BME280;5638;50.860;4.698;2022-10-12T12:39:27;101792.13;;;18.22;nan
12054;BME280;5638;50.860;4.698;2022-10-12T12:42:03;101794.41;;;18.04;nan
12054;BME280;5638;50.860;4.698;2022-10-12T12:44:42;101796.72;;;17.85;nan
12054;BME280;5638;50.860;4.698;2022-10-12T12:50:25;101785.31;;;17.57;nan
12054;BME280;5638;50.860;4.698;2022-10-12T12:53:00;101799.91;;;17.64;nan
12054;BME280;5638;50.860;4.698;2022-10-12T13:19:48;101769.63;;;18.69;nan
12054;BME280;5638;50.860;4.698;2022-10-12T13:22:25;101764.16;;;18.77;nan
12054;BME280;5638;50.860;4.698;2022-10-12T13:24:59;101765.72;;;18.82;nan
12054;BME280;5638;50.860;4.698;2022-10-12T13:27:47;101765.16;;;18.98;nan
12054;BME280;5638;50.860;4.698;2022-10-12T13:30:44;101770.72;;;19.15;nan
12054;BME280;5638;50.860;4.698;2022-10-12T13:33:20;101740.94;;;19.16;nan
12054;BME280;5638;50.860;4.698;2022-10-12T13:35:59;101761.53;;;19.27;nan
12054;BME280;5638;50.860;4.698;2022-10-12T13:38:29;101762.50;;;19.24;nan
12054;BME280;5638;50.860;4.698;2022-10-12T13:46:10;101748.38;;;18.78;nan
12054;BME280;5638;50.860;4.698;2022-10-12T13:48:36;101751.50;;;18.89;nan
12054;BME280;5638;50.860;4.698;2022-10-12T13:51:05;101749.13;;;19.07;nan
12054;BME280;5638;50.860;4.698;2022-10-12T13:53:43;101765.38;;;19.41;nan
12054;BME280;5638;50.860;4.698;2022-10-12T13:56:18;101759.53;;;19.33;nan
12054;BME280;5638;50.860;4.698;2022-10-12T13:58:46;101748.81;;;19.39;nan
12054;BME280;5638;50.860;4.698;2022-10-12T14:01:13;101755.38;;;19.51;nan
12054;BME280;5638;50.860;4.698;2022-10-12T14:03:43;101752.66;;;19.78;nan
12054;BME280;5638;50.860;4.698;2022-10-12T14:06:35;101754.72;;;19.70;nan
12054;BME280;5638;50.860;4.698;2022-10-12T14:09:13;101753.75;;;19.72;nan
12054;BME280;5638;50.860;4.698;2022-10-12T14:11:41;101745.47;;;19.83;nan
12054;BME280;5638;50.860;4.698;2022-10-12T14:14:27;101734.25;;;20.23;nan
12054;BME280;5638;50.860;4.698;2022-10-12T14:16:55;101740.16;;;20.50;nan
12054;BME280;5638;50.860;4.698;2022-10-12T14:19:33;101729.25;;;20.80;nan
12054;BME280;5638;50.860;4.698;2022-10-12T14:22:01;101724.97;;;20.77;nan
12054;BME280;5638;50.860;4.698;2022-10-12T14:24:27;101726.75;;;20.34;nan
12054;BME280;5638;50.860;4.698;2022-10-12T14:26:58;101727.53;;;20.16;nan
12054;BME280;5638;50.860;4.698;2022-10-12T14:29:41;101717.38;;;20.07;nan
12054;BME280;5638;50.860;4.698;2022-10-12T14:34:43;101717.72;;;19.98;nan
12054;BME280;5638;50.860;4.698;2022-10-12T14:39:41;101713.69;;;19.67;nan
12054;BME280;5638;50.860;4.698;2022-10-12T14:42:34;101706.41;;;19.27;nan
12054;BME280;5638;50.860;4.698;2022-10-12T14:45:04;101699.59;;;18.98;nan
12054;BME280;5638;50.860;4.698;2022-10-12T14:47:39;101700.97;;;18.84;nan
12054;BME280;5638;50.860;4.698;2022-10-12T14:50:15;101693.50;;;18.74;nan
12054;BME280;5638;50.860;4.698;2022-10-12T14:52:49;101683.44;;;18.60;nan
12054;BME280;5638;50.860;4.698;2022-10-12T14:55:27;101675.69;;;18.57;nan
12054;BME280;5638;50.860;4.698;2022-10-12T14:57:53;101669.09;;;18.45;nan
12054;BME280;5638;50.860;4.698;2022-10-12T15:00:28;101687.53;;;18.42;nan
12054;BME280;5638;50.860;4.698;2022-10-12T15:02:56;101671.28;;;18.32;nan
12054;BME280;5638;50.860;4.698;2022-10-12T15:05:24;101673.22;;;18.27;nan
12054;BME280;5638;50.860;4.698;2022-10-12T15:07:51;101658.75;;;18.15;nan
12054;BME280;5638;50.860;4.698;2022-10-12T15:10:21;101673.38;;;18.21;nan
12054;BME280;5638;50.860;4.698;2022-10-12T15:12:48;101668.47;;;18.12;nan
12054;BME280;5638;50.860;4.698;2022-10-12T15:15:25;101677.00;;;18.17;nan
12054;BME280;5638;50.860;4.698;2022-10-12T15:17:53;101670.25;;;18.10;nan
12054;BME280;5638;50.860;4.698;2022-10-12T15:20:19;101677.09;;;18.14;nan
12054;BME280;5638;50.860;4.698;2022-10-12T15:22:45;101664.56;;;17.97;nan
12054;BME280;5638;50.860;4.698;2022-10-12T15:28:03;101674.09;;;18.00;nan
12054;BME280;5638;50.860;4.698;2022-10-12T15:30:31;101676.63;;;18.03;nan
12054;BME280;5638;50.860;4.698;2022-10-12T15:32:57;101677.81;;;17.92;nan
12054;BME280;5638;50.860;4.698;2022-10-12T15:35:26;101683.16;;;17.89;nan